createdAt,value
2023-02-04T00:01:54.781Z,5.20
2023-02-04T00:04:21.348Z,5.30
2023-02-04T00:06:47.918Z,5.30
2023-02-04T00:09:14.480Z,5.40
2023-02-04T00:11:41.050Z,5.40
2023-02-04T00:14:07.636Z,5.40
2023-02-04T00:16:34.214Z,5.40
2023-02-04T00:19:00.792Z,5.30
2023-02-04T00:21:27.378Z,5.20
2023-02-04T00:23:55.661Z,5.20
2023-02-04T00:26:22.973Z,5.20
2023-02-04T00:28:49.527Z,5.20
2023-02-04T00:31:16.123Z,5.30
2023-02-04T00:33:42.725Z,5.30
2023-02-04T00:36:09.620Z,5.30
2023-02-04T00:38:36.198Z,5.30
2023-02-04T00:41:02.743Z,5.30
2023-02-04T00:43:29.313Z,5.20
2023-02-04T00:45:55.968Z,5.20
2023-02-04T00:48:22.542Z,5.30
2023-02-04T00:50:49.088Z,5.40
2023-02-04T00:53:15.659Z,5.30
2023-02-04T00:55:42.179Z,5.30
2023-02-04T00:58:08.702Z,5.30
2023-02-04T01:00:35.317Z,5.20
2023-02-04T01:03:01.966Z,5.20
2023-02-04T01:05:28.547Z,5.40
2023-02-04T01:07:55.120Z,5.50
2023-02-04T01:10:21.694Z,5.50
2023-02-04T01:12:48.430Z,5.60
2023-02-04T01:15:15.435Z,5.50
2023-02-04T01:17:42.041Z,5.50
2023-02-04T01:20:10.112Z,5.60
2023-02-04T01:22:36.684Z,5.50
2023-02-04T01:25:03.504Z,5.50
2023-02-04T01:27:30.068Z,5.40
2023-02-04T01:29:56.634Z,5.40
2023-02-04T01:32:23.246Z,5.40
2023-02-04T01:34:49.791Z,5.40
2023-02-04T01:37:16.333Z,5.40
2023-02-04T01:39:42.901Z,5.50
2023-02-04T01:42:09.854Z,5.50
2023-02-04T01:44:36.443Z,5.60
2023-02-04T01:47:03.036Z,5.60
2023-02-04T01:49:29.760Z,5.60
2023-02-04T01:51:56.675Z,5.60
2023-02-04T01:54:23.484Z,5.60
2023-02-04T01:56:50.078Z,5.70
2023-02-04T01:59:18.185Z,5.70
2023-02-04T02:01:47.424Z,5.70
2023-02-04T02:04:16.985Z,5.70
2023-02-04T02:06:50.654Z,5.60
2023-02-04T02:09:17.326Z,5.70
2023-02-04T02:11:44.160Z,5.70
2023-02-04T02:14:11.185Z,5.70
2023-02-04T02:16:37.976Z,5.60
2023-02-04T02:19:07.364Z,5.60
2023-02-04T02:21:46.888Z,5.60
2023-02-04T02:24:31.011Z,5.60
2023-02-04T02:26:59.960Z,5.50
2023-02-04T02:29:27.333Z,5.50
2023-02-04T02:31:55.080Z,5.60
2023-02-04T02:34:21.698Z,5.50
2023-02-04T02:36:48.329Z,5.50
2023-02-04T02:39:15.205Z,5.60
2023-02-04T02:41:41.841Z,5.60
2023-02-04T02:44:11.095Z,5.60
2023-02-04T02:46:38.106Z,5.50
2023-02-04T02:49:04.755Z,5.50
2023-02-04T02:51:31.367Z,5.40
2023-02-04T02:53:58.575Z,5.30
2023-02-04T02:56:25.199Z,5.30
2023-02-04T02:58:51.778Z,5.30
2023-02-04T03:01:18.356Z,5.40
2023-02-04T03:03:50.795Z,5.20
2023-02-04T03:06:22.836Z,5.20
2023-02-04T03:08:52.328Z,5.20
2023-02-04T03:11:18.879Z,5.10
2023-02-04T03:13:45.505Z,5.10
2023-02-04T03:16:12.738Z,5.10
2023-02-04T03:18:39.463Z,5.10
2023-02-04T03:21:07.447Z,4.90
2023-02-04T03:23:35.813Z,4.90
2023-02-04T03:26:03.183Z,4.80
2023-02-04T03:28:30.412Z,4.80
2023-02-04T03:30:57.451Z,4.80
2023-02-04T03:33:26.837Z,4.70
2023-02-04T03:35:53.443Z,4.70
2023-02-04T03:38:20.129Z,4.80
2023-02-04T03:40:46.855Z,4.80
2023-02-04T03:43:13.437Z,4.70
2023-02-04T03:45:45.351Z,4.70
2023-02-04T03:48:12.508Z,4.60
2023-02-04T03:50:39.094Z,4.50
2023-02-04T03:53:05.694Z,4.60
2023-02-04T03:55:32.281Z,4.70
2023-02-04T03:57:59.013Z,4.60
2023-02-04T04:00:25.591Z,4.60
2023-02-04T04:02:52.210Z,4.50
2023-02-04T04:05:18.823Z,4.30
2023-02-04T04:07:45.363Z,4.30
2023-02-04T04:10:12.113Z,4.30
2023-02-04T04:12:38.705Z,4.30
2023-02-04T04:15:05.674Z,4.30
2023-02-04T04:17:32.594Z,4.30
2023-02-04T04:19:59.158Z,4.30
2023-02-04T04:22:25.765Z,4.20
2023-02-04T04:24:52.347Z,4.20
2023-02-04T04:27:19.187Z,4.20
2023-02-04T04:29:45.720Z,4.10
2023-02-04T04:32:12.279Z,4.10
2023-02-04T04:34:38.928Z,4.00
2023-02-04T04:37:05.541Z,3.90
2023-02-04T04:39:32.090Z,3.90
2023-02-04T04:41:58.664Z,3.90
2023-02-04T04:44:25.217Z,3.90
2023-02-04T04:46:51.776Z,4.00
2023-02-04T04:49:18.329Z,4.00
2023-02-04T04:51:44.885Z,3.90
2023-02-04T04:54:11.507Z,3.90
2023-02-04T04:56:38.124Z,3.90
2023-02-04T04:59:04.843Z,3.90
2023-02-04T05:01:31.391Z,3.90
2023-02-04T05:03:57.947Z,3.90
2023-02-04T05:06:25.571Z,3.90
2023-02-04T05:08:52.639Z,3.90
2023-02-04T05:11:20.008Z,3.90
2023-02-04T05:13:47.060Z,3.90
2023-02-04T05:16:13.926Z,3.90
2023-02-04T05:18:41.089Z,3.90
2023-02-04T05:21:08.096Z,3.90
2023-02-04T05:23:35.285Z,3.90
2023-02-04T05:26:01.873Z,3.90
2023-02-04T05:28:28.456Z,3.90
2023-02-04T05:30:55.100Z,4.00
2023-02-04T05:33:21.710Z,4.00
2023-02-04T05:35:49.923Z,4.00
2023-02-04T05:38:16.632Z,4.00
2023-02-04T05:40:43.263Z,4.00
2023-02-04T05:43:09.859Z,4.00
2023-02-04T05:45:36.525Z,3.90
2023-02-04T05:48:03.222Z,4.00
2023-02-04T05:50:30.016Z,4.00
2023-02-04T05:52:56.684Z,3.90
2023-02-04T05:55:23.238Z,4.00
2023-02-04T05:57:49.760Z,3.90
2023-02-04T06:00:16.410Z,3.90
2023-02-04T06:02:42.997Z,3.90
2023-02-04T06:05:09.571Z,4.00
2023-02-04T06:07:36.124Z,4.10
2023-02-04T06:10:02.760Z,4.00
2023-02-04T06:12:29.405Z,4.00
2023-02-04T06:14:55.982Z,4.00
2023-02-04T06:17:22.547Z,4.00
2023-02-04T06:19:49.099Z,4.10
2023-02-04T06:22:15.712Z,4.20
2023-02-04T06:24:42.254Z,4.20
2023-02-04T06:27:08.803Z,4.10
2023-02-04T06:29:35.427Z,4.10
2023-02-04T06:32:02.079Z,4.00
2023-02-04T06:34:28.703Z,3.90
2023-02-04T06:36:55.294Z,4.00
2023-02-04T06:39:21.912Z,3.90
2023-02-04T06:41:48.458Z,4.00
2023-02-04T06:44:14.993Z,4.00
2023-02-04T06:46:41.557Z,3.90
2023-02-04T06:49:08.108Z,3.90
2023-02-04T06:51:34.668Z,3.90
2023-02-04T06:54:01.227Z,3.90
2023-02-04T06:56:27.781Z,3.90
2023-02-04T06:58:54.336Z,3.90
2023-02-04T07:01:20.927Z,3.90
2023-02-04T07:03:47.475Z,3.90
2023-02-04T07:06:14.111Z,4.00
2023-02-04T07:08:40.695Z,4.00
2023-02-04T07:11:07.345Z,4.00
2023-02-04T07:13:33.954Z,4.00
2023-02-04T07:16:00.635Z,4.00
2023-02-04T07:18:27.237Z,4.00
2023-02-04T07:20:53.790Z,4.00
2023-02-04T07:23:20.376Z,4.00
2023-02-04T07:25:46.943Z,4.00
2023-02-04T07:28:13.537Z,4.00
2023-02-04T07:30:40.295Z,4.00
2023-02-04T07:33:06.938Z,4.00
2023-02-04T07:35:33.513Z,4.10
2023-02-04T07:38:00.074Z,4.00
2023-02-04T07:40:26.634Z,4.10
2023-02-04T07:42:53.158Z,4.10
2023-02-04T07:45:19.704Z,4.00
2023-02-04T07:47:46.309Z,4.00
2023-02-04T07:50:13.127Z,4.00
2023-02-04T07:52:39.787Z,4.00
2023-02-04T07:55:07.036Z,4.00
2023-02-04T07:57:34.882Z,4.10
2023-02-04T08:00:01.579Z,4.10
2023-02-04T08:02:28.485Z,4.10
2023-02-04T08:04:55.112Z,4.20
2023-02-04T08:07:21.675Z,4.10
2023-02-04T08:09:48.222Z,4.20
2023-02-04T08:12:15.035Z,4.20
2023-02-04T08:14:41.582Z,4.20
2023-02-04T08:17:08.117Z,4.30
2023-02-04T08:19:34.671Z,4.30
2023-02-04T08:22:01.260Z,4.30
2023-02-04T08:24:27.789Z,4.40
2023-02-04T08:26:54.329Z,4.40
2023-02-04T08:29:20.905Z,4.50
2023-02-04T08:31:47.496Z,4.60
2023-02-04T08:34:14.326Z,4.70
2023-02-04T08:36:40.869Z,4.70
2023-02-04T08:39:07.421Z,4.80
2023-02-04T08:41:33.976Z,4.80
2023-02-04T08:44:00.630Z,4.80
2023-02-04T08:46:27.395Z,4.90
2023-02-04T08:48:54.064Z,4.80
2023-02-04T08:51:20.625Z,4.80
2023-02-04T08:53:47.224Z,4.80
2023-02-04T08:56:13.839Z,5.00
2023-02-04T08:58:40.422Z,5.00
2023-02-04T09:01:07.000Z,5.00
2023-02-04T09:03:33.646Z,5.00
2023-02-04T09:06:00.178Z,5.10
2023-02-04T09:08:26.764Z,5.10
2023-02-04T09:10:53.303Z,5.10
2023-02-04T09:13:19.907Z,5.10
2023-02-04T09:15:46.485Z,5.10
2023-02-04T09:18:13.056Z,5.20
2023-02-04T09:20:39.676Z,5.10
2023-02-04T09:23:06.291Z,5.10
2023-02-04T09:25:32.837Z,5.10
2023-02-04T09:27:59.424Z,5.10
2023-02-04T09:30:25.982Z,5.20
2023-02-04T09:32:52.536Z,5.10
2023-02-04T09:35:19.109Z,5.20
2023-02-04T09:37:45.679Z,5.20
2023-02-04T09:40:17.352Z,5.10
2023-02-04T09:42:44.692Z,5.20
2023-02-04T09:45:36.251Z,5.30
2023-02-04T09:48:05.196Z,5.20
2023-02-04T09:50:32.753Z,5.20
2023-02-04T09:53:03.180Z,5.20
2023-02-04T09:55:50.332Z,5.30
2023-02-04T09:58:22.714Z,5.10
2023-02-04T10:01:01.785Z,5.00
2023-02-04T10:03:28.545Z,5.20
2023-02-04T10:05:55.126Z,5.20
2023-02-04T10:08:28.820Z,5.20
2023-02-04T10:10:57.789Z,5.10
2023-02-04T10:13:32.732Z,5.00
2023-02-04T10:16:00.081Z,5.00
2023-02-04T10:18:32.853Z,5.10
2023-02-04T10:21:16.542Z,5.00
2023-02-04T10:23:45.283Z,5.10
2023-02-04T10:26:13.075Z,5.00
2023-02-04T10:28:39.918Z,4.90
2023-02-04T10:31:07.572Z,5.00
2023-02-04T10:33:34.513Z,4.90
2023-02-04T10:36:01.283Z,5.00
2023-02-04T10:38:27.851Z,5.00
2023-02-04T10:41:05.329Z,5.00
2023-02-04T10:43:32.502Z,5.10
2023-02-04T10:46:02.793Z,4.90
2023-02-04T10:48:29.784Z,4.80
2023-02-04T10:50:57.804Z,4.90
2023-02-04T10:53:25.780Z,4.90
2023-02-04T10:55:52.435Z,4.90
2023-02-04T10:58:24.568Z,4.80
2023-02-04T11:00:51.153Z,4.90
2023-02-04T11:03:24.685Z,4.80
2023-02-04T11:05:52.128Z,4.80
2023-02-04T11:08:25.554Z,4.80
2023-02-04T11:11:00.330Z,4.90
2023-02-04T11:13:43.523Z,4.90
2023-02-04T11:16:24.785Z,4.80
2023-02-04T11:18:55.452Z,4.80
2023-02-04T11:21:34.319Z,4.90
2023-02-04T11:24:11.202Z,5.00
2023-02-04T11:26:50.671Z,5.00
2023-02-04T11:29:32.699Z,5.20
2023-02-04T11:32:05.485Z,5.30
2023-02-04T11:34:43.484Z,5.40
2023-02-04T11:37:16.820Z,5.40
2023-02-04T11:39:50.586Z,5.40
2023-02-04T11:42:39.899Z,5.50
2023-02-04T11:45:17.658Z,5.50
2023-02-04T11:47:44.615Z,5.40
2023-02-04T11:50:30.752Z,5.30
2023-02-04T11:52:58.824Z,5.30
2023-02-04T11:55:25.756Z,5.30
2023-02-04T11:57:54.969Z,5.40
2023-02-04T12:00:30.082Z,5.30
2023-02-04T12:03:04.897Z,5.20
2023-02-04T12:05:43.081Z,5.10
2023-02-04T12:08:34.239Z,5.10
2023-02-04T12:11:05.152Z,5.20
2023-02-04T12:13:32.410Z,5.00
2023-02-04T12:16:05.868Z,5.00
2023-02-04T12:18:34.439Z,5.00
2023-02-04T12:21:02.077Z,4.70
2023-02-04T12:23:29.755Z,4.60
2023-02-04T12:25:56.844Z,4.60
2023-02-04T12:28:24.074Z,4.50
2023-02-04T12:30:50.770Z,4.60
2023-02-04T12:33:17.387Z,4.60
2023-02-04T12:35:43.927Z,4.70
2023-02-04T12:38:10.660Z,5.00
2023-02-04T12:40:37.943Z,5.10
2023-02-04T12:43:04.584Z,5.00
2023-02-04T12:45:31.535Z,5.10
2023-02-04T12:47:58.425Z,5.00
2023-02-04T12:50:25.034Z,5.00
2023-02-04T12:52:53.394Z,5.10
2023-02-04T12:55:22.334Z,5.10
2023-02-04T12:57:48.997Z,5.10
2023-02-04T13:00:16.798Z,5.30
2023-02-04T13:02:43.572Z,5.40
2023-02-04T13:05:10.386Z,5.60
2023-02-04T13:07:37.265Z,5.70
2023-02-04T13:10:04.784Z,5.70
2023-02-04T13:12:31.338Z,5.60
2023-02-04T13:14:57.902Z,5.70
2023-02-04T13:17:24.945Z,5.90
2023-02-04T13:19:51.492Z,5.90
2023-02-04T13:22:18.079Z,5.70
2023-02-04T13:24:44.624Z,5.70
2023-02-04T13:27:11.176Z,5.70
2023-02-04T13:29:37.712Z,5.70
2023-02-04T13:32:04.446Z,5.70
2023-02-04T13:34:30.999Z,5.60
2023-02-04T13:36:57.627Z,5.60
2023-02-04T13:39:24.454Z,5.60
2023-02-04T13:41:51.113Z,5.50
2023-02-04T13:44:17.754Z,5.60
2023-02-04T13:46:44.563Z,5.70
2023-02-04T13:49:11.142Z,5.60
2023-02-04T13:51:37.716Z,5.70
2023-02-04T13:54:04.466Z,5.60
2023-02-04T13:56:31.038Z,5.70
2023-02-04T13:58:57.662Z,5.60
2023-02-04T14:01:24.350Z,5.50
2023-02-04T14:03:50.970Z,5.50
2023-02-04T14:06:17.518Z,5.50
2023-02-04T14:08:44.085Z,5.60
2023-02-04T14:11:10.626Z,5.60
2023-02-04T14:13:37.169Z,5.50
2023-02-04T14:16:03.880Z,5.50
2023-02-04T14:18:30.829Z,5.50
2023-02-04T14:20:57.392Z,5.60
2023-02-04T14:23:23.953Z,5.60
2023-02-04T14:25:50.515Z,5.50
2023-02-04T14:28:17.113Z,5.50
2023-02-04T14:30:43.701Z,5.50
2023-02-04T14:33:10.348Z,5.50
2023-02-04T14:35:36.943Z,5.40
2023-02-04T14:38:03.843Z,5.40
2023-02-04T14:40:30.568Z,5.40
2023-02-04T14:42:57.204Z,5.40
2023-02-04T14:45:23.763Z,5.40
2023-02-04T14:47:50.283Z,5.50
2023-02-04T14:50:17.141Z,5.40
2023-02-04T14:52:43.805Z,5.60
2023-02-04T14:55:10.442Z,5.60
2023-02-04T14:57:36.973Z,5.40
2023-02-04T15:00:04.976Z,5.20
2023-02-04T15:02:31.567Z,5.10
2023-02-04T15:04:58.209Z,5.00
2023-02-04T15:07:24.775Z,5.10
2023-02-04T15:09:51.363Z,5.30
2023-02-04T15:12:17.936Z,5.20
2023-02-04T15:14:44.551Z,5.10
2023-02-04T15:17:11.135Z,5.00
2023-02-04T15:19:37.691Z,4.90
2023-02-04T15:22:04.266Z,4.90
2023-02-04T15:24:30.862Z,4.90
2023-02-04T15:26:57.418Z,4.80
2023-02-04T15:29:23.993Z,4.80
2023-02-04T15:31:50.609Z,4.70
2023-02-04T15:34:17.192Z,4.60
2023-02-04T15:36:43.744Z,4.50
2023-02-04T15:39:10.264Z,4.60
2023-02-04T15:41:36.789Z,4.50
2023-02-04T15:44:03.456Z,4.50
2023-02-04T15:46:30.088Z,4.40
2023-02-04T15:48:56.658Z,4.50
2023-02-04T15:51:23.209Z,4.40
2023-02-04T15:53:49.775Z,4.30
2023-02-04T15:56:16.442Z,4.30
2023-02-04T15:58:43.020Z,4.20
2023-02-04T16:01:09.663Z,4.20
2023-02-04T16:03:36.283Z,4.10
2023-02-04T16:06:03.000Z,4.10
2023-02-04T16:08:29.529Z,4.00
2023-02-04T16:10:56.090Z,4.00
2023-02-04T16:13:22.639Z,3.90
2023-02-04T16:15:49.181Z,3.90
2023-02-04T16:18:15.743Z,3.80
2023-02-04T16:20:42.372Z,3.70
2023-02-04T16:23:08.923Z,3.60
2023-02-04T16:25:35.560Z,3.60
2023-02-04T16:28:03.220Z,3.60
2023-02-04T16:30:29.860Z,3.50
2023-02-04T16:32:56.450Z,3.40
2023-02-04T16:35:23.041Z,3.40
2023-02-04T16:37:49.608Z,3.30
2023-02-04T16:40:16.250Z,3.30
2023-02-04T16:42:42.793Z,3.20
2023-02-04T16:45:09.705Z,3.10
2023-02-04T16:47:36.337Z,3.10
2023-02-04T16:50:04.329Z,3.10
2023-02-04T16:52:30.923Z,3.00
2023-02-04T16:54:58.226Z,3.00
2023-02-04T16:57:24.825Z,3.00
2023-02-04T16:59:51.422Z,3.00
2023-02-04T17:02:17.963Z,2.90
2023-02-04T17:04:44.524Z,2.70
2023-02-04T17:07:11.096Z,2.70
2023-02-04T17:09:37.648Z,2.60
2023-02-04T17:12:04.671Z,2.60
2023-02-04T17:14:31.251Z,2.50
2023-02-04T17:16:57.808Z,2.50
2023-02-04T17:19:25.184Z,2.40
2023-02-04T17:21:51.784Z,2.40
2023-02-04T17:24:18.321Z,2.30
2023-02-04T17:26:44.870Z,2.30
2023-02-04T17:29:14.072Z,2.30
2023-02-04T17:31:41.020Z,2.20
2023-02-04T17:34:07.569Z,2.20
2023-02-04T17:36:34.556Z,2.10
2023-02-04T17:39:01.790Z,2.10
2023-02-04T17:41:29.822Z,2.00
2023-02-04T17:43:57.330Z,2.00
2023-02-04T17:46:23.891Z,1.90
2023-02-04T17:48:50.469Z,1.80
2023-02-04T17:51:17.054Z,1.80
2023-02-04T17:57:14.106Z,1.80
2023-02-04T17:59:41.068Z,1.70
2023-02-04T18:02:17.473Z,1.60
2023-02-04T18:04:44.190Z,1.60
2023-02-04T18:07:11.092Z,1.50
2023-02-04T18:09:37.760Z,1.50
2023-02-04T18:12:15.691Z,1.40
2023-02-04T18:14:42.454Z,1.40
2023-02-04T18:17:13.393Z,1.50
2023-02-04T18:19:40.917Z,1.50
2023-02-04T18:22:13.646Z,1.40
2023-02-04T18:24:42.313Z,1.40
2023-02-04T18:27:17.948Z,1.30
2023-02-04T18:29:50.905Z,1.10
2023-02-04T18:32:24.796Z,1.10
2023-02-04T18:34:54.176Z,1.20
2023-02-04T18:37:45.403Z,1.20
2023-02-04T18:40:27.458Z,1.20
2023-02-04T18:43:22.037Z,1.20
2023-02-04T18:45:48.868Z,1.20
2023-02-04T18:48:21.878Z,1.20
2023-02-04T18:50:53.689Z,1.20
2023-02-04T18:53:25.186Z,1.20
2023-02-04T18:55:54.867Z,1.20
2023-02-04T18:58:28.162Z,1.20
2023-02-04T19:01:17.003Z,1.20
2023-02-04T19:03:50.417Z,1.20
2023-02-04T19:06:33.457Z,1.10
2023-02-04T19:09:28.402Z,1.10
2023-02-04T19:11:57.141Z,1.20
2023-02-04T19:14:25.817Z,1.20
2023-02-04T19:16:56.903Z,1.10
2023-02-04T19:19:39.788Z,1.10
2023-02-04T19:22:19.093Z,1.00
2023-02-04T19:24:46.380Z,1.20
2023-02-04T19:27:32.344Z,1.20
2023-02-04T19:30:22.686Z,1.20
2023-02-04T19:32:49.719Z,1.20
2023-02-04T19:35:20.309Z,1.10
2023-02-04T19:37:55.996Z,1.10
2023-02-04T19:40:32.745Z,1.10
2023-02-04T19:43:15.173Z,1.20
2023-02-04T19:45:42.770Z,1.20
2023-02-04T19:48:36.301Z,1.30
2023-02-04T19:51:21.352Z,1.20
2023-02-04T19:53:48.961Z,1.20
2023-02-04T19:56:35.525Z,1.20
2023-02-04T19:59:36.569Z,1.20
2023-02-04T20:02:24.063Z,1.20
2023-02-04T20:04:54.102Z,1.30
2023-02-04T20:07:26.923Z,1.30
2023-02-04T20:10:20.960Z,1.30
2023-02-04T20:12:51.482Z,1.30
2023-02-04T20:15:21.437Z,1.30
2023-02-04T20:17:49.370Z,1.30
2023-02-04T20:20:20.724Z,1.30
2023-02-04T20:22:53.155Z,1.20
2023-02-04T20:25:19.973Z,1.20
2023-02-04T20:27:53.072Z,1.10
2023-02-04T20:30:23.351Z,1.00
2023-02-04T20:32:59.420Z,1.00
2023-02-04T20:35:29.199Z,1.00
2023-02-04T20:37:59.090Z,1.10
2023-02-04T20:40:32.838Z,1.10
2023-02-04T20:43:03.050Z,1.00
2023-02-04T20:45:52.669Z,0.90
2023-02-04T20:48:19.362Z,1.00
2023-02-04T20:50:51.048Z,1.10
2023-02-04T20:53:20.526Z,1.10
2023-02-04T20:55:56.396Z,1.10
2023-02-04T20:58:37.765Z,1.10
2023-02-04T21:01:19.871Z,1.10
2023-02-04T21:03:47.412Z,1.10
2023-02-04T21:06:22.347Z,1.10
2023-02-04T21:08:51.423Z,1.00
2023-02-04T21:11:18.494Z,1.00
2023-02-04T21:13:45.236Z,1.00
2023-02-04T21:16:12.133Z,1.10
2023-02-04T21:18:39.035Z,1.00
2023-02-04T21:21:07.957Z,1.00
2023-02-04T21:23:36.282Z,1.00
2023-02-04T21:26:03.645Z,1.00
2023-02-04T21:28:31.084Z,1.00
2023-02-04T21:30:59.129Z,1.00
2023-02-04T21:33:26.415Z,1.00
2023-02-04T21:35:53.149Z,1.00
2023-02-04T21:38:19.901Z,1.00
2023-02-04T21:40:46.730Z,1.00
2023-02-04T21:43:13.446Z,0.90
2023-02-04T21:45:40.204Z,1.00
2023-02-04T21:48:07.277Z,0.90
2023-02-04T21:50:34.906Z,0.90
2023-02-04T21:53:01.682Z,1.00
2023-02-04T21:55:28.504Z,0.90
2023-02-04T21:57:55.229Z,0.90
2023-02-04T22:00:23.552Z,0.90
2023-02-04T22:02:51.982Z,0.90
2023-02-04T22:05:20.180Z,0.90
2023-02-04T22:07:47.249Z,0.80
2023-02-04T22:10:16.904Z,0.70
2023-02-04T22:12:49.427Z,0.70
2023-02-04T22:15:16.376Z,0.70
2023-02-04T22:17:43.894Z,0.70
2023-02-04T22:20:11.873Z,0.70
2023-02-04T22:22:38.791Z,0.60
2023-02-04T22:25:05.834Z,0.60
2023-02-04T22:27:32.711Z,0.60
2023-02-04T22:29:59.494Z,0.50
2023-02-04T22:32:26.425Z,0.50
2023-02-04T22:34:53.439Z,0.50
2023-02-04T22:37:22.532Z,0.50
2023-02-04T22:39:49.270Z,0.40
2023-02-04T22:42:16.035Z,0.40
2023-02-04T22:44:42.944Z,0.30
2023-02-04T22:47:10.084Z,0.20
2023-02-04T22:49:36.852Z,0.30
2023-02-04T22:52:03.998Z,0.30
2023-02-04T22:54:30.859Z,0.20
2023-02-04T22:56:57.676Z,0.20
2023-02-04T22:59:24.955Z,0.20
2023-02-04T23:01:52.171Z,0.20
2023-02-04T23:04:18.906Z,0.10
2023-02-04T23:06:45.754Z,0.10
2023-02-04T23:09:12.782Z,0.00
2023-02-04T23:11:39.546Z,0.00
2023-02-04T23:14:06.384Z,0.00
2023-02-04T23:16:33.122Z,0.00
2023-02-04T23:18:59.880Z,-0.10
2023-02-04T23:21:26.738Z,-0.10
2023-02-04T23:23:53.956Z,0.00
2023-02-04T23:26:21.126Z,-0.10
2023-02-04T23:28:47.935Z,-0.10
2023-02-04T23:31:15.735Z,-0.20
2023-02-04T23:33:42.530Z,-0.20
2023-02-04T23:36:11.718Z,-0.10
2023-02-04T23:38:38.455Z,-0.20
2023-02-04T23:41:08.484Z,-0.20
2023-02-04T23:43:35.234Z,-0.30
2023-02-04T23:46:04.587Z,-0.30
2023-02-04T23:48:31.362Z,-0.30
2023-02-04T23:51:00.260Z,-0.30
2023-02-04T23:53:26.982Z,-0.40
2023-02-04T23:55:54.682Z,-0.40
2023-02-04T23:58:21.403Z,-0.40
